createdAt,value
2019-05-16T00:01:34.447Z,1.57
2019-05-16T00:04:03.827Z,1.92
2019-05-16T00:06:33.495Z,1.85
2019-05-16T00:09:02.691Z,1.10
2019-05-16T00:11:32.230Z,2.00
2019-05-16T00:14:02.131Z,2.05
2019-05-16T00:16:38.713Z,2.25
2019-05-16T00:19:12.258Z,1.50
2019-05-16T00:22:02.498Z,1.25
2019-05-16T00:27:27.901Z,1.82
2019-05-16T00:29:58.170Z,1.57
2019-05-16T00:32:28.371Z,1.50
2019-05-16T00:34:58.476Z,1.37
2019-05-16T00:37:28.646Z,1.35
2019-05-16T00:39:58.806Z,2.05
2019-05-16T00:42:29.417Z,2.20
2019-05-16T00:44:59.649Z,1.65
2019-05-16T00:47:29.786Z,1.52
2019-05-16T00:50:01.094Z,1.35
2019-05-16T00:52:31.423Z,1.67
2019-05-16T00:55:03.895Z,1.87
2019-05-16T00:57:39.022Z,3.00
2019-05-16T01:00:09.049Z,1.25
2019-05-16T01:02:38.429Z,1.95
2019-05-16T01:05:08.565Z,1.32
2019-05-16T01:07:39.068Z,1.60
2019-05-16T01:10:09.888Z,1.47
2019-05-16T01:12:39.334Z,3.05
2019-05-16T01:15:08.892Z,1.52
2019-05-16T01:17:39.075Z,1.85
2019-05-16T01:20:14.225Z,1.95
2019-05-16T01:22:44.134Z,1.35
2019-05-16T01:25:15.881Z,1.37
2019-05-16T01:27:44.665Z,1.65
2019-05-16T01:30:18.633Z,1.00
2019-05-16T01:32:51.966Z,1.47
2019-05-16T01:35:38.373Z,1.50
2019-05-16T01:38:12.691Z,1.25
2019-05-16T01:40:42.451Z,1.27
2019-05-16T01:43:11.867Z,2.30
2019-05-16T01:45:41.317Z,2.90
2019-05-16T01:48:10.814Z,1.47
2019-05-16T01:50:40.295Z,1.47
2019-05-16T01:53:12.696Z,1.42
2019-05-16T01:55:58.586Z,1.20
2019-05-16T01:58:38.184Z,1.25
2019-05-16T02:01:12.347Z,1.22
2019-05-16T02:03:34.211Z,1.05
2019-05-16T02:06:08.813Z,1.15
2019-05-16T02:08:44.232Z,1.45
2019-05-16T02:11:20.442Z,1.37
2019-05-16T02:13:49.694Z,2.10
2019-05-16T02:16:18.965Z,1.00
2019-05-16T02:18:48.900Z,1.30
2019-05-16T02:21:18.419Z,1.15
2019-05-16T02:23:52.771Z,1.47
2019-05-16T02:26:22.644Z,1.85
2019-05-16T02:28:51.912Z,1.85
2019-05-16T02:31:22.733Z,1.10
2019-05-16T02:33:53.788Z,1.40
2019-05-16T02:36:26.201Z,1.35
2019-05-16T02:38:55.969Z,1.15
2019-05-16T02:41:32.881Z,1.07
2019-05-16T02:44:04.130Z,1.20
2019-05-16T02:46:41.837Z,1.25
2019-05-16T02:49:16.445Z,1.35
2019-05-16T02:51:46.259Z,1.37
2019-05-16T02:54:21.648Z,1.77
2019-05-16T02:56:52.307Z,1.10
2019-05-16T02:59:21.791Z,1.27
2019-05-16T03:01:52.327Z,1.12
2019-05-16T03:04:30.056Z,1.02
2019-05-16T03:06:54.828Z,1.10
2019-05-16T03:09:30.499Z,1.30
2019-05-16T03:12:01.332Z,1.12
2019-05-16T03:14:31.852Z,1.10
2019-05-16T03:17:01.323Z,1.00
2019-05-16T03:19:33.088Z,1.07
2019-05-16T03:22:04.152Z,2.00
2019-05-16T03:24:36.848Z,1.25
2019-05-16T03:27:10.902Z,1.45
2019-05-16T03:29:43.528Z,1.30
2019-05-16T03:32:14.656Z,0.90
2019-05-16T03:34:54.654Z,1.52
2019-05-16T03:37:25.147Z,1.32
2019-05-16T03:39:54.656Z,1.15
2019-05-16T03:42:24.068Z,1.12
2019-05-16T03:44:56.437Z,1.25
2019-05-16T03:47:27.095Z,1.45
2019-05-16T03:49:56.323Z,1.35
2019-05-16T03:52:30.994Z,1.25
2019-05-16T03:55:01.761Z,1.12
2019-05-16T03:57:31.399Z,1.20
2019-05-16T04:00:00.975Z,1.02
2019-05-16T04:02:45.786Z,1.10
2019-05-16T04:05:14.776Z,0.80
2019-05-16T04:07:45.208Z,1.32
2019-05-16T04:10:21.528Z,1.12
2019-05-16T04:12:53.870Z,1.25
2019-05-16T04:15:22.998Z,1.32
2019-05-16T04:17:55.667Z,1.12
2019-05-16T04:20:26.307Z,1.12
2019-05-16T04:23:01.165Z,0.98
2019-05-16T04:25:31.103Z,1.25
2019-05-16T04:28:01.176Z,1.00
2019-05-16T04:30:31.415Z,1.37
2019-05-16T04:33:01.866Z,3.47
2019-05-16T04:35:31.768Z,1.10
2019-05-16T04:38:01.891Z,2.50
2019-05-16T04:40:31.555Z,2.10
2019-05-16T04:43:01.320Z,1.95
2019-05-16T04:45:31.811Z,8.40
2019-05-16T04:50:56.037Z,2.08
2019-05-16T04:53:25.500Z,3.22
2019-05-16T04:55:56.629Z,5.92
2019-05-16T04:58:25.937Z,2.72
2019-05-16T05:00:56.422Z,3.02
2019-05-16T05:03:25.862Z,3.30
2019-05-16T05:05:56.702Z,3.60
2019-05-16T05:08:26.370Z,3.92
2019-05-16T05:10:57.869Z,2.95
2019-05-16T05:15:55.543Z,7.12
2019-05-16T05:18:24.899Z,6.62
2019-05-16T05:21:00.910Z,3.52
2019-05-16T05:23:30.168Z,5.50
2019-05-16T05:26:02.651Z,2.20
2019-05-16T05:28:31.982Z,2.98
2019-05-16T05:31:01.394Z,3.95
2019-05-16T05:33:33.547Z,6.20
2019-05-16T05:36:03.003Z,6.40
2019-05-16T05:38:34.963Z,5.42
2019-05-16T05:41:07.170Z,4.15
2019-05-16T05:43:36.540Z,8.03
2019-05-16T05:46:11.147Z,9.83
2019-05-16T05:48:41.149Z,4.60
2019-05-16T05:51:11.441Z,5.08
2019-05-16T05:53:42.203Z,4.92
2019-05-16T05:56:19.690Z,5.20
2019-05-16T05:58:58.889Z,3.58
2019-05-16T06:01:27.741Z,4.70
2019-05-16T06:04:02.342Z,6.85
2019-05-16T06:06:31.434Z,5.90
2019-05-16T06:09:00.831Z,4.70
2019-05-16T06:11:33.185Z,6.83
2019-05-16T06:14:04.071Z,5.75
2019-05-16T06:16:33.963Z,6.03
2019-05-16T06:19:03.046Z,4.80
2019-05-16T06:21:33.936Z,9.50
2019-05-16T06:24:04.110Z,7.37
2019-05-16T06:26:33.823Z,9.48
2019-05-16T06:29:26.596Z,5.80
2019-05-16T06:31:57.622Z,9.58
2019-05-16T06:34:30.203Z,9.90
2019-05-16T06:37:00.611Z,3.87
2019-05-16T06:39:41.849Z,11.45
2019-05-16T06:42:15.230Z,6.75
2019-05-16T06:44:50.820Z,8.23
2019-05-16T06:47:31.624Z,7.70
2019-05-16T06:50:07.905Z,6.25
2019-05-16T06:52:40.882Z,9.55
2019-05-16T06:55:11.401Z,4.60
2019-05-16T06:57:45.606Z,4.40
2019-05-16T07:00:23.708Z,6.90
2019-05-16T07:03:00.344Z,4.22
2019-05-16T07:05:29.938Z,5.72
2019-05-16T07:08:05.454Z,5.17
2019-05-16T07:10:39.775Z,3.52
2019-05-16T07:13:15.324Z,3.55
2019-05-16T07:15:44.880Z,3.45
2019-05-16T07:18:26.369Z,7.05
2019-05-16T07:21:00.023Z,4.72
2019-05-16T07:23:36.662Z,5.28
2019-05-16T07:26:06.402Z,5.60
2019-05-16T07:28:40.587Z,4.15
2019-05-16T07:31:17.882Z,3.35
2019-05-16T07:33:51.176Z,1.82
2019-05-16T07:36:21.097Z,2.25
2019-05-16T07:38:53.228Z,2.10
2019-05-16T07:41:25.803Z,4.25
2019-05-16T07:44:16.560Z,4.15
2019-05-16T07:46:45.907Z,4.28
2019-05-16T07:49:15.244Z,1.57
2019-05-16T07:51:44.702Z,4.62
2019-05-16T07:54:13.915Z,2.02
2019-05-16T07:56:44.579Z,2.52
2019-05-16T07:59:14.081Z,2.97
2019-05-16T08:01:43.492Z,1.90
2019-05-16T08:04:12.990Z,3.90
2019-05-16T08:06:46.694Z,3.12
2019-05-16T08:09:16.605Z,3.17
2019-05-16T08:11:50.125Z,2.05
2019-05-16T08:14:21.280Z,2.52
2019-05-16T08:17:10.499Z,4.08
2019-05-16T08:19:42.962Z,1.92
2019-05-16T08:22:12.098Z,2.42
2019-05-16T08:24:41.729Z,2.83
2019-05-16T08:29:47.262Z,2.27
2019-05-16T08:32:16.636Z,2.17
2019-05-16T08:34:46.308Z,1.42
2019-05-16T08:37:33.993Z,3.35
2019-05-16T08:39:52.495Z,1.57
2019-05-16T08:42:22.098Z,1.87
2019-05-16T08:44:52.785Z,1.45
2019-05-16T08:47:23.868Z,1.27
2019-05-16T08:49:53.823Z,2.62
2019-05-16T08:50:11.928Z,1.85
2019-05-16T08:52:23.113Z,1.57
2019-05-16T08:54:55.353Z,1.85
2019-05-16T08:57:27.733Z,2.00
2019-05-16T08:59:55.493Z,1.50
2019-05-16T09:02:35.507Z,0.90
2019-05-16T09:04:57.266Z,2.22
2019-05-16T09:07:26.982Z,1.42
2019-05-16T09:10:00.412Z,2.40
2019-05-16T09:12:30.250Z,3.98
2019-05-16T09:15:01.035Z,1.00
2019-05-16T09:17:33.640Z,1.00
2019-05-16T09:20:07.131Z,1.17
2019-05-16T09:22:37.906Z,1.20
2019-05-16T09:27:38.175Z,0.88
2019-05-16T09:30:11.844Z,1.40
2019-05-16T09:32:43.390Z,0.98
2019-05-16T09:35:16.884Z,3.20
2019-05-16T09:37:48.083Z,1.62
2019-05-16T09:40:22.832Z,1.87
2019-05-16T09:42:56.923Z,0.90
2019-05-16T09:45:37.995Z,0.68
2019-05-16T09:48:10.062Z,2.25
2019-05-16T09:50:40.855Z,0.80
2019-05-16T09:53:13.075Z,0.90
2019-05-16T09:55:42.593Z,0.78
2019-05-16T09:58:12.217Z,1.45
2019-05-16T10:00:41.897Z,1.87
2019-05-16T10:03:12.844Z,1.90
2019-05-16T10:05:46.511Z,1.47
2019-05-16T10:08:17.271Z,1.37
2019-05-16T10:10:47.935Z,0.90
2019-05-16T10:13:19.100Z,0.93
2019-05-16T10:15:48.963Z,1.92
2019-05-16T10:18:19.651Z,0.62
2019-05-16T10:20:50.742Z,1.90
2019-05-16T10:23:19.982Z,0.93
2019-05-16T10:25:50.880Z,1.10
2019-05-16T10:28:20.538Z,0.70
2019-05-16T10:30:51.989Z,1.45
2019-05-16T10:33:20.937Z,1.07
2019-05-16T10:35:50.383Z,1.45
2019-05-16T10:38:19.679Z,1.62
2019-05-16T10:40:49.149Z,1.15
2019-05-16T10:43:18.534Z,0.70
2019-05-16T10:45:53.756Z,1.22
2019-05-16T10:48:23.047Z,0.90
2019-05-16T10:50:57.334Z,0.85
2019-05-16T10:53:52.305Z,0.90
2019-05-16T10:55:57.296Z,0.55
2019-05-16T10:58:36.622Z,1.00
2019-05-16T11:01:17.870Z,1.02
2019-05-16T11:03:28.532Z,1.85
2019-05-16T11:06:05.391Z,0.57
2019-05-16T11:08:29.001Z,0.98
2019-05-16T11:11:01.781Z,0.72
2019-05-16T11:13:31.492Z,1.07
2019-05-16T11:16:00.689Z,0.75
2019-05-16T11:18:37.607Z,0.75
2019-05-16T11:21:06.869Z,0.90
2019-05-16T11:23:36.792Z,0.82
2019-05-16T11:26:07.931Z,1.22
2019-05-16T11:28:42.655Z,1.62
2019-05-16T11:31:11.750Z,0.98
2019-05-16T11:33:41.051Z,0.57
2019-05-16T11:36:12.882Z,2.40
2019-05-16T11:38:41.426Z,0.65
2019-05-16T11:41:10.935Z,0.75
2019-05-16T11:43:40.126Z,0.98
2019-05-16T11:46:14.516Z,2.42
2019-05-16T11:48:44.933Z,2.17
2019-05-16T11:51:14.271Z,0.72
2019-05-16T11:53:43.822Z,0.68
2019-05-16T11:56:17.144Z,0.75
2019-05-16T11:58:47.314Z,0.70
2019-05-16T12:01:16.867Z,1.00
2019-05-16T12:03:46.776Z,1.15
2019-05-16T12:06:17.097Z,1.07
2019-05-16T12:08:46.806Z,0.85
2019-05-16T12:11:17.815Z,1.15
2019-05-16T12:13:47.610Z,0.93
2019-05-16T12:16:18.798Z,0.50
2019-05-16T12:18:50.868Z,0.78
2019-05-16T12:21:21.479Z,1.05
2019-05-16T12:23:52.668Z,1.20
2019-05-16T12:26:27.910Z,1.92
2019-05-16T12:28:57.363Z,1.02
2019-05-16T12:31:32.826Z,1.23
2019-05-16T12:34:03.479Z,1.15
2019-05-16T12:36:37.744Z,0.55
2019-05-16T12:39:08.008Z,1.20
2019-05-16T12:41:41.644Z,0.50
2019-05-16T12:44:16.161Z,1.35
2019-05-16T12:46:47.449Z,0.95
2019-05-16T12:49:18.570Z,0.93
2019-05-16T12:51:48.036Z,1.20
2019-05-16T12:54:20.691Z,1.15
2019-05-16T12:56:50.106Z,1.35
2019-05-16T12:59:21.529Z,1.10
2019-05-16T13:01:50.754Z,0.50
2019-05-16T13:04:20.230Z,0.80
2019-05-16T13:06:49.837Z,0.80
2019-05-16T13:09:21.524Z,0.93
2019-05-16T13:14:19.906Z,1.15
2019-05-16T13:16:49.533Z,1.15
2019-05-16T13:19:19.036Z,0.85
2019-05-16T13:21:48.398Z,1.57
2019-05-16T13:24:19.088Z,1.10
2019-05-16T13:26:51.662Z,0.67
2019-05-16T13:29:23.160Z,1.35
2019-05-16T13:31:52.657Z,1.45
2019-05-16T13:34:23.515Z,0.85
2019-05-16T13:36:52.845Z,0.93
2019-05-16T13:39:22.247Z,1.70
2019-05-16T13:41:51.810Z,3.12
2019-05-16T13:44:27.499Z,1.55
2019-05-16T13:46:59.760Z,3.42
2019-05-16T13:49:32.350Z,1.12
2019-05-16T13:52:07.307Z,1.15
2019-05-16T13:54:52.693Z,3.00
2019-05-16T13:57:44.326Z,1.15
2019-05-16T14:00:17.526Z,1.30
2019-05-16T14:02:48.850Z,1.10
2019-05-16T14:05:20.455Z,2.00
2019-05-16T14:10:29.691Z,3.20
2019-05-16T14:13:09.170Z,2.67
2019-05-16T14:16:17.785Z,4.28
2019-05-16T14:19:17.369Z,9.30
2019-05-16T14:21:57.097Z,3.30
2019-05-16T14:24:28.294Z,1.00
2019-05-16T14:27:00.569Z,1.72
2019-05-16T14:29:32.740Z,2.20
2019-05-16T14:32:02.154Z,2.12
2019-05-16T14:34:31.235Z,3.22
2019-05-16T14:37:00.288Z,1.82
2019-05-16T14:39:29.489Z,1.25
2019-05-16T14:41:59.737Z,1.52
2019-05-16T14:45:06.795Z,0.90
2019-05-16T14:47:22.009Z,1.20
2019-05-16T14:50:11.389Z,2.45
2019-05-16T14:52:36.889Z,1.42
2019-05-16T14:55:11.397Z,1.75
2019-05-16T14:57:51.991Z,2.60
2019-05-16T15:00:21.917Z,1.87
2019-05-16T15:02:56.693Z,1.72
2019-05-16T15:05:55.286Z,1.42
2019-05-16T15:08:28.514Z,1.70
2019-05-16T15:10:58.590Z,1.15
2019-05-16T15:13:28.118Z,1.95
2019-05-16T15:15:57.722Z,1.47
2019-05-16T15:18:29.349Z,4.17
2019-05-16T15:21:02.763Z,3.50
2019-05-16T15:23:31.668Z,2.15
2019-05-16T15:26:00.940Z,1.37
2019-05-16T15:28:30.506Z,1.32
2019-05-16T15:31:01.281Z,1.77
2019-05-16T15:33:30.558Z,4.83
2019-05-16T15:36:03.405Z,2.25
2019-05-16T15:38:33.026Z,2.10
2019-05-16T15:41:02.207Z,1.02
2019-05-16T15:43:31.340Z,2.00
2019-05-16T15:46:01.315Z,1.42
2019-05-16T15:48:30.887Z,1.22
2019-05-16T15:51:00.199Z,2.08
2019-05-16T15:53:31.019Z,1.40
2019-05-16T15:56:00.453Z,1.25
2019-05-16T15:58:29.713Z,0.70
2019-05-16T16:01:01.928Z,5.83
2019-05-16T16:03:33.156Z,2.08
2019-05-16T16:06:06.559Z,3.02
2019-05-16T16:08:40.076Z,5.37
2019-05-16T16:11:09.445Z,4.22
2019-05-16T16:13:38.776Z,0.95
2019-05-16T16:16:09.821Z,2.30
2019-05-16T16:18:38.917Z,3.75
2019-05-16T16:21:08.624Z,1.90
2019-05-16T16:23:39.349Z,3.75
2019-05-16T16:26:08.281Z,3.97
2019-05-16T16:28:40.383Z,1.22
2019-05-16T16:31:12.278Z,2.55
2019-05-16T16:33:41.610Z,1.25
2019-05-16T16:36:11.270Z,3.98
2019-05-16T16:38:40.888Z,2.37
2019-05-16T16:41:15.347Z,3.12
2019-05-16T16:44:03.959Z,4.05
2019-05-16T16:46:33.065Z,2.42
2019-05-16T16:49:08.185Z,5.72
2019-05-16T16:51:48.377Z,3.22
2019-05-16T16:54:27.539Z,4.25
2019-05-16T16:56:57.336Z,4.55
2019-05-16T16:59:29.253Z,1.25
2019-05-16T17:02:27.815Z,1.50
2019-05-16T17:05:01.408Z,2.02
2019-05-16T17:07:30.099Z,1.30
2019-05-16T17:10:02.656Z,3.02
2019-05-16T17:12:32.136Z,3.05
2019-05-16T17:15:08.449Z,2.98
2019-05-16T17:17:37.391Z,4.97
2019-05-16T17:20:07.535Z,5.17
2019-05-16T17:22:38.769Z,7.90
2019-05-16T17:25:09.392Z,6.20
2019-05-16T17:27:41.858Z,12.98
2019-05-16T17:30:19.493Z,6.75
2019-05-16T17:32:49.367Z,5.97
2019-05-16T17:35:40.643Z,7.90
2019-05-16T17:38:17.282Z,9.85
2019-05-16T17:40:51.181Z,3.62
2019-05-16T17:43:22.401Z,6.95
2019-05-16T17:45:59.818Z,10.10
2019-05-16T17:48:31.751Z,5.03
2019-05-16T17:51:02.506Z,5.50
2019-05-16T17:55:07.413Z,9.60
2019-05-16T17:56:02.254Z,9.63
2019-05-16T17:58:31.611Z,9.73
2019-05-16T18:01:01.196Z,8.68
2019-05-16T18:03:32.847Z,8.08
2019-05-16T18:06:02.280Z,8.73
2019-05-16T18:08:31.581Z,13.90
2019-05-16T18:11:03.565Z,6.87
2019-05-16T18:13:52.425Z,9.18
2019-05-16T18:16:51.628Z,6.15
2019-05-16T18:19:08.822Z,5.37
2019-05-16T18:21:38.223Z,14.45
2019-05-16T18:24:16.666Z,7.65
2019-05-16T18:26:57.161Z,3.37
2019-05-16T18:29:28.828Z,11.22
2019-05-16T18:34:37.461Z,9.68
2019-05-16T18:37:12.468Z,6.80
2019-05-16T18:39:43.344Z,4.90
2019-05-16T18:42:12.885Z,2.80
2019-05-16T18:44:42.075Z,3.22
2019-05-16T18:47:13.825Z,5.65
2019-05-16T18:49:43.135Z,5.53
2019-05-16T18:52:14.138Z,4.75
2019-05-16T18:54:46.513Z,4.15
2019-05-16T18:57:17.556Z,4.60
2019-05-16T18:59:47.072Z,5.58
2019-05-16T19:02:17.924Z,3.35
2019-05-16T19:04:49.748Z,4.37
2019-05-16T19:07:21.009Z,5.90
2019-05-16T19:09:50.568Z,5.83
2019-05-16T19:12:19.694Z,5.67
2019-05-16T19:14:57.102Z,3.85
2019-05-16T19:17:35.167Z,4.10
2019-05-16T19:20:10.661Z,5.25
2019-05-16T19:22:43.338Z,5.58
2019-05-16T19:25:18.314Z,4.03
2019-05-16T19:27:50.030Z,10.23
2019-05-16T19:30:37.576Z,4.67
2019-05-16T19:33:17.610Z,5.55
2019-05-16T19:35:50.871Z,9.93
2019-05-16T19:38:29.548Z,2.10
2019-05-16T19:41:08.015Z,6.05
2019-05-16T19:43:46.518Z,4.15
2019-05-16T19:46:15.401Z,6.15
2019-05-16T19:48:53.857Z,5.55
2019-05-16T19:51:31.613Z,2.58
2019-05-16T19:54:11.912Z,5.60
2019-05-16T19:56:48.981Z,5.03
2019-05-16T19:59:18.082Z,5.97
2019-05-16T20:01:49.406Z,8.23
2019-05-16T20:04:18.609Z,3.47
2019-05-16T20:06:48.101Z,8.35
2019-05-16T20:09:19.775Z,7.97
2019-05-16T20:11:51.620Z,7.15
2019-05-16T20:14:27.419Z,5.22
2019-05-16T20:16:58.750Z,6.28
2019-05-16T20:19:28.135Z,4.28
2019-05-16T20:21:58.117Z,5.75
2019-05-16T20:24:27.508Z,5.25
2019-05-16T20:26:57.128Z,7.00
2019-05-16T20:29:27.352Z,6.08
2019-05-16T20:31:59.428Z,5.78
2019-05-16T20:34:27.405Z,6.27
2019-05-16T20:36:57.207Z,4.30
2019-05-16T20:39:26.860Z,4.33
2019-05-16T20:41:59.748Z,7.53
2019-05-16T20:44:28.315Z,7.50
2019-05-16T20:46:57.678Z,3.33
2019-05-16T20:49:27.122Z,5.53
2019-05-16T20:51:57.847Z,5.05
2019-05-16T20:54:26.959Z,5.00
2019-05-16T20:56:57.381Z,3.02
2019-05-16T20:59:26.942Z,5.92
2019-05-16T21:01:57.474Z,2.92
2019-05-16T21:04:26.736Z,5.87
2019-05-16T21:07:04.453Z,6.78
2019-05-16T21:09:29.174Z,1.83
2019-05-16T21:14:27.023Z,4.03
2019-05-16T21:16:57.759Z,3.05
2019-05-16T21:19:27.373Z,5.07
2019-05-16T21:21:56.629Z,3.25
2019-05-16T21:24:26.743Z,3.58
2019-05-16T21:26:55.917Z,8.53
2019-05-16T21:29:27.521Z,3.12
2019-05-16T21:31:59.125Z,4.90
2019-05-16T21:34:28.464Z,3.52
2019-05-16T21:37:11.020Z,4.72
2019-05-16T21:39:28.324Z,2.67
2019-05-16T21:41:59.376Z,5.00
2019-05-16T21:44:29.005Z,3.52
2019-05-16T21:46:58.319Z,3.52
2019-05-16T21:49:27.646Z,5.10
2019-05-16T21:52:03.955Z,2.37
2019-05-16T21:54:36.534Z,2.50
2019-05-16T21:57:05.122Z,4.40
2019-05-16T21:59:34.156Z,2.58
2019-05-16T22:02:03.475Z,2.10
2019-05-16T22:04:32.396Z,3.95
2019-05-16T22:07:07.662Z,3.20
2019-05-16T22:09:47.697Z,2.15
2019-05-16T22:12:31.396Z,3.05
2019-05-16T22:15:11.523Z,5.72
2019-05-16T22:17:51.480Z,4.97
2019-05-16T22:20:40.985Z,2.47
2019-05-16T22:23:13.110Z,4.75
2019-05-16T22:25:48.841Z,3.37
2019-05-16T22:28:17.338Z,1.92
2019-05-16T22:30:51.570Z,3.90
2019-05-16T22:33:23.701Z,2.92
2019-05-16T22:35:52.832Z,3.27
2019-05-16T22:38:26.147Z,3.10
2019-05-16T22:40:56.584Z,3.77
2019-05-16T22:43:28.085Z,4.50
2019-05-16T22:48:26.696Z,1.67
2019-05-16T22:50:56.540Z,2.75
2019-05-16T22:53:27.304Z,3.52
2019-05-16T22:55:56.759Z,3.33
2019-05-16T22:58:26.911Z,2.50
2019-05-16T23:00:58.609Z,1.87
2019-05-16T23:03:30.886Z,1.65
2019-05-16T23:06:02.302Z,2.67
2019-05-16T23:08:33.645Z,2.50
2019-05-16T23:11:02.719Z,0.90
2019-05-16T23:13:40.980Z,3.10
2019-05-16T23:16:16.993Z,3.02
2019-05-16T23:18:46.417Z,1.50
2019-05-16T23:21:18.005Z,2.90
2019-05-16T23:23:48.983Z,2.17
2019-05-16T23:26:18.472Z,3.00
2019-05-16T23:28:47.919Z,2.12
2019-05-16T23:31:18.757Z,2.12
2019-05-16T23:33:48.498Z,1.80
2019-05-16T23:36:17.877Z,1.98
2019-05-16T23:38:49.352Z,2.17
2019-05-16T23:41:18.549Z,3.05
2019-05-16T23:43:47.840Z,1.57
2019-05-16T23:46:17.580Z,2.02
2019-05-16T23:48:47.329Z,2.35
2019-05-16T23:51:17.114Z,1.70
2019-05-16T23:53:48.624Z,2.22
2019-05-16T23:56:20.795Z,2.35
2019-05-16T23:58:56.988Z,1.37
